createdAt,value
2022-08-30T00:00:43.398Z,5.9
2022-08-30T00:05:45.688Z,5.7
2022-08-30T00:10:47.996Z,5.8
2022-08-30T00:15:50.301Z,5.9
2022-08-30T00:20:53.478Z,5.3
2022-08-30T00:25:56.882Z,5.6
2022-08-30T00:30:59.676Z,5.3
2022-08-30T00:36:02.579Z,5.5
2022-08-30T00:41:05.452Z,5.6
2022-08-30T00:46:07.912Z,5.4
2022-08-30T00:51:10.913Z,5.5
2022-08-30T00:56:13.643Z,5.5
2022-08-30T01:01:16.365Z,5.4
2022-08-30T01:06:19.966Z,5.5
2022-08-30T01:11:23.087Z,5.5
2022-08-30T01:16:27.353Z,5.9
2022-08-30T01:21:32.320Z,5.8
2022-08-30T01:26:34.830Z,6
2022-08-30T01:31:37.227Z,6.9
2022-08-30T01:36:46.013Z,8.1
2022-08-30T01:41:48.936Z,11.2
2022-08-30T01:46:51.505Z,14.2
2022-08-30T01:52:01.993Z,37
2022-08-30T01:56:54.829Z,78.2
2022-08-30T02:01:58.351Z,80.2
2022-08-30T02:07:01.268Z,87
2022-08-30T02:12:03.977Z,79.4
2022-08-30T02:17:06.793Z,63.3
2022-08-30T02:22:09.570Z,49.5
2022-08-30T02:27:12.056Z,12.1
2022-08-30T02:32:14.368Z,8.2
2022-08-30T02:37:16.842Z,7.5
2022-08-30T02:42:19.444Z,7.9
2022-08-30T02:47:21.855Z,7.5
2022-08-30T02:52:28.843Z,7.3
2022-08-30T02:57:31.334Z,7.4
2022-08-30T03:02:34.144Z,7.6
2022-08-30T03:07:37.061Z,7.4
2022-08-30T03:12:39.521Z,7.6
2022-08-30T03:17:41.947Z,7.4
2022-08-30T03:22:44.629Z,7.7
2022-08-30T03:27:47.286Z,7.4
2022-08-30T03:32:52.398Z,7.8
2022-08-30T03:37:57.269Z,7.4
2022-08-30T03:43:00.661Z,7.4
2022-08-30T03:48:03.345Z,7.8
2022-08-30T03:53:05.932Z,8
2022-08-30T03:58:08.546Z,8.3
2022-08-30T04:03:11.143Z,8.8
2022-08-30T04:08:14.041Z,8.6
2022-08-30T04:13:16.986Z,8.8
2022-08-30T04:18:19.558Z,8.8
2022-08-30T04:23:22.132Z,9.2
2022-08-30T04:28:24.606Z,9
2022-08-30T04:33:27.222Z,8.7
2022-08-30T04:38:31.491Z,8.9
2022-08-30T04:43:34.085Z,13.5
2022-08-30T04:48:34.841Z,8.8
2022-08-30T04:53:37.405Z,8.8
2022-08-30T04:58:39.989Z,8.5
2022-08-30T05:03:43.174Z,8.9
2022-08-30T05:08:47.281Z,8.6
2022-08-30T05:13:49.701Z,8.9
2022-08-30T05:18:52.008Z,9.6
2022-08-30T05:23:59.492Z,8.7
2022-08-30T05:29:02.113Z,9.4
2022-08-30T05:34:04.441Z,9.4
2022-08-30T05:39:06.934Z,8.7
2022-08-30T05:44:15.097Z,8.3
2022-08-30T05:49:17.634Z,8
2022-08-30T05:54:20.236Z,8.3
2022-08-30T05:59:22.853Z,7.6
2022-08-30T06:04:25.764Z,7.3
2022-08-30T06:09:28.479Z,7.2
2022-08-30T06:14:30.973Z,6.4
2022-08-30T06:19:33.656Z,5.4
2022-08-30T06:24:58.131Z,5.3
2022-08-30T06:29:41.067Z,5.2
2022-08-30T06:34:43.626Z,7.5
2022-08-30T06:39:46.405Z,5
2022-08-30T06:44:49.100Z,4.6
2022-08-30T06:49:54.076Z,5.2
2022-08-30T06:54:58.162Z,5
2022-08-30T07:00:00.758Z,4.4
2022-08-30T07:05:03.275Z,4.4
2022-08-30T07:10:05.981Z,4.8
2022-08-30T07:15:08.882Z,3.9
2022-08-30T07:20:11.424Z,4.1
2022-08-30T07:25:13.953Z,3.8
2022-08-30T07:30:16.432Z,3.7
2022-08-30T07:35:18.972Z,4
2022-08-30T07:40:21.981Z,3.9
2022-08-30T07:45:25.145Z,4
2022-08-30T07:50:27.732Z,3.5
2022-08-30T07:55:30.183Z,3.3
2022-08-30T08:00:32.880Z,3.4
2022-08-30T08:05:35.455Z,3.2
2022-08-30T08:10:38.052Z,2.8
2022-08-30T08:15:41.324Z,2.8
2022-08-30T08:20:44.020Z,2.6
2022-08-30T08:25:46.662Z,2.6
2022-08-30T08:30:49.374Z,4.5
2022-08-30T08:35:51.971Z,3
2022-08-30T08:40:54.544Z,2.7
2022-08-30T08:45:57.559Z,2.3
2022-08-30T08:51:03.624Z,2.7
2022-08-30T08:56:06.327Z,2.7
2022-08-30T09:01:14.751Z,2.9
2022-08-30T09:06:17.755Z,2.5
2022-08-30T09:11:27.357Z,3.1
2022-08-30T09:16:30.186Z,2.6
2022-08-30T09:21:33.155Z,2.7
2022-08-30T09:26:36.095Z,2.7
2022-08-30T09:31:38.668Z,2.2
2022-08-30T09:36:41.303Z,2.3
2022-08-30T09:41:44.069Z,2.2
2022-08-30T09:46:49.045Z,2
2022-08-30T09:51:52.379Z,2.5
2022-08-30T09:56:55.023Z,2.4
2022-08-30T10:02:00.308Z,2.3
2022-08-30T10:07:03.283Z,2.4
2022-08-30T10:12:06.880Z,2.4
2022-08-30T10:17:14.524Z,2.1
2022-08-30T10:22:19.703Z,2.6
2022-08-30T10:27:25.052Z,2.2
2022-08-30T10:32:27.582Z,2.6
2022-08-30T10:37:30.098Z,2.3
2022-08-30T10:42:40.176Z,2.6
2022-08-30T10:47:33.926Z,2.2
2022-08-30T10:52:36.308Z,2.6
2022-08-30T10:57:43.791Z,2.4
2022-08-30T11:02:46.287Z,3.1
2022-08-30T11:07:48.895Z,2.6
2022-08-30T11:12:55.508Z,2.3
2022-08-30T11:17:58.734Z,2.2
2022-08-30T11:23:01.323Z,2.4
2022-08-30T11:28:12.211Z,2.5
2022-08-30T11:38:23.344Z,2.3
2022-08-30T11:43:33.332Z,2.3
2022-08-30T11:48:37.619Z,2.8
2022-08-30T11:53:50.681Z,2.5
2022-08-30T11:58:53.563Z,2.1
2022-08-30T12:03:56.197Z,1.9
2022-08-30T12:09:03.472Z,2
2022-08-30T12:14:01.603Z,8.9
2022-08-30T12:19:08.052Z,3.7
2022-08-30T12:24:14.974Z,2
2022-08-30T12:29:18.365Z,1.7
2022-08-30T12:34:21.262Z,1.8
2022-08-30T12:39:26.370Z,1.6
2022-08-30T12:44:30.157Z,1.7
2022-08-30T12:49:33.070Z,1.6
2022-08-30T12:54:38.986Z,1.6
2022-08-30T12:59:58.078Z,1.8
2022-08-30T13:04:44.169Z,1.6
2022-08-30T13:09:47.288Z,1.5
2022-08-30T13:14:53.429Z,1.6
2022-08-30T13:19:57.557Z,1.8
2022-08-30T13:25:00.471Z,1.8
2022-08-30T13:30:07.700Z,1.7
2022-08-30T13:35:07.091Z,1.8
2022-08-30T13:40:10.284Z,2.4
2022-08-30T13:45:44.458Z,1.9
2022-08-30T13:50:21.869Z,1.7
2022-08-30T13:55:17.130Z,1.7
2022-08-30T14:00:21.471Z,2.3
2022-08-30T14:05:52.831Z,1.7
2022-08-30T14:10:47.431Z,2.1
2022-08-30T14:15:41.178Z,1.7
2022-08-30T14:20:45.019Z,2.5
2022-08-30T14:25:48.639Z,1.9
2022-08-30T14:30:53.879Z,1.9
2022-08-30T14:35:59.185Z,1.7
2022-08-30T14:41:01.864Z,1.9
2022-08-30T14:46:04.781Z,1.9
2022-08-30T14:51:07.666Z,1.7
2022-08-30T14:56:12.811Z,1.7
2022-08-30T15:01:15.336Z,1.7
2022-08-30T15:06:18.973Z,2
2022-08-30T15:11:26.916Z,1.7
2022-08-30T15:16:34.712Z,9.6
2022-08-30T15:21:37.795Z,3
2022-08-30T15:26:40.901Z,1.8
2022-08-30T15:31:43.969Z,1.8
2022-08-30T15:36:52.118Z,2
2022-08-30T15:42:00.911Z,1.8
2022-08-30T15:47:04.471Z,1.7
2022-08-30T15:52:09.557Z,1.9
2022-08-30T15:57:12.210Z,1.7
2022-08-30T16:02:14.597Z,1.8
2022-08-30T16:07:19.747Z,1.8
2022-08-30T16:12:24.830Z,1.9
2022-08-30T16:17:27.876Z,1.9
2022-08-30T16:22:32.163Z,1.9
2022-08-30T16:27:35.847Z,1.7
2022-08-30T16:32:41.521Z,2
2022-08-30T16:37:44.798Z,2
2022-08-30T16:42:47.496Z,1.6
2022-08-30T16:47:53.163Z,1.8
2022-08-30T16:52:55.810Z,1.8
2022-08-30T16:57:59.307Z,2.1
2022-08-30T17:03:02.900Z,1.9
2022-08-30T17:08:10.085Z,1.9
2022-08-30T17:13:15.409Z,1.8
2022-08-30T17:18:19.297Z,2
2022-08-30T17:23:22.700Z,2
2022-08-30T17:28:26.526Z,2.4
2022-08-30T17:33:29.445Z,2.2
2022-08-30T17:38:32.114Z,2.6
2022-08-30T17:43:37.861Z,2.3
2022-08-30T17:48:40.677Z,2.2
2022-08-30T17:53:43.224Z,2.2
2022-08-30T17:58:46.617Z,2.2
2022-08-30T18:03:49.869Z,2.6
2022-08-30T18:08:57.044Z,2.6
2022-08-30T18:13:57.904Z,2.8
2022-08-30T18:19:00.763Z,2.5
2022-08-30T18:24:03.418Z,2.9
2022-08-30T18:29:05.982Z,2.7
2022-08-30T18:34:13.300Z,2.7
2022-08-30T18:39:15.916Z,2.7
2022-08-30T18:44:29.714Z,2.7
2022-08-30T18:49:25.964Z,11.6
2022-08-30T18:54:29.316Z,186.8
2022-08-30T18:59:37.982Z,63.7
2022-08-30T19:04:36.935Z,25.6
2022-08-30T19:09:39.624Z,7.1
2022-08-30T19:14:43.786Z,10.2
2022-08-30T19:19:52.272Z,4.4
2022-08-30T19:24:55.662Z,6.9
2022-08-30T19:30:02.032Z,5.3
2022-08-30T19:35:05.137Z,5.1
2022-08-30T19:40:09.079Z,3.9
2022-08-30T19:45:13.554Z,3.4
2022-08-30T19:50:16.824Z,3.5
2022-08-30T19:55:25.642Z,9.5
2022-08-30T20:00:23.482Z,5.2
2022-08-30T20:05:26.461Z,3.6
2022-08-30T20:10:29.559Z,3.8
2022-08-30T20:15:33.125Z,5.2
2022-08-30T20:20:37.662Z,4.1
2022-08-30T20:25:40.515Z,3.6
2022-08-30T20:30:43.178Z,3.8
2022-08-30T20:35:50.272Z,3.3
2022-08-30T20:40:53.035Z,2.7
2022-08-30T20:45:55.806Z,3.9
2022-08-30T20:50:59.821Z,5.6
2022-08-30T20:56:02.414Z,5.4
2022-08-30T21:01:05.195Z,4.6
2022-08-30T21:06:08.043Z,5
2022-08-30T21:11:10.310Z,5
2022-08-30T21:16:13.458Z,4.1
2022-08-30T21:21:16.215Z,4
2022-08-30T21:26:19.016Z,3.9
2022-08-30T21:31:21.742Z,3.8
2022-08-30T21:36:24.605Z,3.6
2022-08-30T21:41:27.926Z,3.3
2022-08-30T21:46:30.658Z,3
2022-08-30T21:51:33.450Z,2.9
2022-08-30T21:56:35.785Z,2.8
2022-08-30T22:01:38.647Z,2.7
2022-08-30T22:06:41.357Z,2.5
2022-08-30T22:11:43.735Z,2.9
2022-08-30T22:16:48.209Z,2.4
2022-08-30T22:21:51.611Z,2.6
2022-08-30T22:26:52.743Z,3
2022-08-30T22:31:55.388Z,2.6
2022-08-30T22:36:56.289Z,2.7
2022-08-30T22:41:58.785Z,2.4
2022-08-30T22:47:01.188Z,2.4
2022-08-30T22:52:03.487Z,2.4
2022-08-30T22:57:05.988Z,2.1
2022-08-30T23:02:09.007Z,2.1
2022-08-30T23:07:11.542Z,2.2
2022-08-30T23:12:13.958Z,2.1
2022-08-30T23:17:16.243Z,2
2022-08-30T23:22:18.583Z,1.9
2022-08-30T23:27:21.734Z,2
2022-08-30T23:32:24.143Z,1.9
2022-08-30T23:37:26.719Z,2
2022-08-30T23:42:29.030Z,1.9
2022-08-30T23:47:32.720Z,1.9
2022-08-30T23:52:35.228Z,1.8
2022-08-30T23:57:37.551Z,1.9
